Terminal Aerodrome Forecast
Issued by NWS

Home | Current Version | Previous Version | Text Only | Print | Product List | Glossary On
Versions: 1 2 3 4 5 6 7 8 9 10 11 12 13 14 15 16 17 18 19 20 21 22 23 24 25 26 27 28 29 30 31 32 33 34 35 36 37 38
000
FTUS42 KRAH 052352 CCA
TAFRWI
TAF COR
KRWI 052352Z 0600/0624 01005KT P6SM SCT250
     FM060600 04004KT P6SM -RA BKN040 OVC110
     FM061000 06009KT 4SM -RA BR SCT007 BKN012 OVC025
     FM061300 07012KT 3SM -RA BR OVC007 WS020/11040KT
     FM061800 06005KT 3SM -RA BR OVC006 WS020/11035KT
     FM062100 29007KT 3SM -RA BR OVC006 WS020/19030KT=

USA.gov is the U.S. government's official web portal to all federal, state and local government web resources and services.